Time;durP1;ratioP1;P1;durP2;ratioP2;P2;SDS_P1;SDS_P2;PMS_P1;PMS_P2;Temp;Humidity;BMP_temperature;BMP_pressure;BME280_temperature;BME280_humidity;BME280_pressure;Samples;Min_cycle;Max_cycle;Signal;HPM_P1;HPM_P2
2024/01/09 04:57:47;;;;;;;;;;;-6.30;99.90;;;;;;5620211;23;19926;-76
2024/01/09 05:00:14;;;;;;;;;;;-6.20;99.90;;;;;;4995282;28;20387;-76
2024/01/09 05:02:41;;;;;;;;;;;-6.30;99.90;;;;;;4995696;28;20410;-77
2024/01/09 05:05:08;;;;;;;;;;;-6.30;99.90;;;;;;4995599;28;19929;-76
2024/01/09 05:07:35;;;;;;;;;;;-6.30;99.90;;;;;;5003109;28;19932;-75
2024/01/09 05:10:02;;;;;;;;;;;-6.30;99.90;;;;;;5015583;28;19933;-75
2024/01/09 05:12:29;;;;;;;;;;;-6.30;99.90;;;;;;5015137;28;19972;-75
2024/01/09 05:14:56;;;;;;;;;;;-6.30;99.90;;;;;;5014935;28;20302;-75
2024/01/09 05:17:23;;;;;;;;;;;-6.20;99.90;;;;;;5015163;28;19932;-75
2024/01/09 05:19:49;;;;;;;;;;;-6.20;99.90;;;;;;5014995;28;19932;-74
2024/01/09 05:22:15;;;;;;;;;;;-6.10;99.90;;;;;;5014006;28;19922;-72
2024/01/09 05:24:42;;;;;;;;;;;-6.30;99.90;;;;;;5014750;28;20390;-72
2024/01/09 05:27:08;;;;;;;;;;;-6.00;99.90;;;;;;5014673;28;19933;-73
2024/01/09 05:29:37;;;;;;;;;;;-6.30;99.90;;;;;;5014724;28;19926;-73
2024/01/09 05:32:06;;;;;;;;;;;-6.20;99.90;;;;;;5014714;28;20299;-76
2024/01/09 05:34:32;;;;;;;;;;;-6.20;99.90;;;;;;5015093;28;19925;-76
2024/01/09 05:36:59;;;;;;;;;;;-6.30;99.90;;;;;;5014754;28;19933;-76
2024/01/09 05:39:25;;;;;;;;;;;-5.20;99.90;;;;;;5015024;28;19933;-74
2024/01/09 05:41:52;;;;;;;;;;;-6.30;99.90;;;;;;5016620;28;19926;-75
2024/01/09 05:44:19;;;;;;;;;;;-6.40;99.90;;;;;;5017086;28;19929;-75
2024/01/09 05:46:46;;;;;;;;;;;-6.40;99.90;;;;;;5014775;28;19926;-75
2024/01/09 05:49:13;;;;;;;;;;;-6.40;99.90;;;;;;5014584;28;19972;-72
2024/01/09 05:51:40;;;;;;;;;;;-6.40;99.90;;;;;;5014804;28;19926;-72
2024/01/09 05:54:07;;;;;;;;;;;-6.30;99.90;;;;;;5014969;28;19948;-75
2024/01/09 05:56:33;;;;;;;;;;;-6.50;99.90;;;;;;5015491;28;19926;-78
2024/01/09 05:59:00;;;;;;;;;;;-6.40;99.90;;;;;;5014084;28;20264;-76
2024/01/09 06:01:26;;;;;;;;;;;-6.40;99.90;;;;;;5016067;28;19979;-80
2024/01/09 06:03:53;;;;;;;;;;;-6.50;99.90;;;;;;5014875;28;20355;-75
2024/01/09 06:06:21;;;;;;;;;;;-6.40;99.90;;;;;;5014458;28;20363;-75
2024/01/09 06:08:48;;;;;;;;;;;-6.50;99.90;;;;;;5013827;28;20386;-74
2024/01/09 11:55:07;;;;;;;;;;;-6.50;99.90;;;;;;4977792;28;20402;-76
2024/01/09 11:57:34;;;;;;;;;;;-6.50;99.90;;;;;;4979145;28;20414;-76
2024/01/09 12:00:01;;;;;;;;;;;-6.50;99.90;;;;;;4979245;28;19968;-76
2024/01/09 12:02:28;;;;;;;;;;;-6.50;99.90;;;;;;4979181;28;20454;-77
2024/01/09 12:04:55;;;;;;;;;;;-6.50;99.90;;;;;;4978803;28;19926;-77
2024/01/09 12:07:22;;;;;;;;;;;-6.50;99.90;;;;;;4978881;28;20016;-77
2024/01/09 12:09:49;;;;;;;;;;;-6.50;99.90;;;;;;4979155;28;20131;-77
2024/01/09 12:12:23;;;;;;;;;;;-6.50;99.90;;;;;;4978428;28;19926;-75
2024/01/09 12:14:53;;;;;;;;;;;-6.50;99.90;;;;;;4978539;28;19927;-76
2024/01/09 12:17:21;;;;;;;;;;;-6.40;99.90;;;;;;4978918;28;20314;-76
2024/01/09 12:19:47;;;;;;;;;;;-6.40;99.90;;;;;;4978561;28;19926;-76
2024/01/09 12:22:14;;;;;;;;;;;-6.50;99.90;;;;;;4978754;28;19926;-76
2024/01/09 12:24:42;;;;;;;;;;;-6.50;99.90;;;;;;4978878;28;19926;-76
2024/01/09 12:27:09;;;;;;;;;;;-6.50;99.90;;;;;;4978112;28;20438;-75
2024/01/09 12:29:37;;;;;;;;;;;-6.60;99.90;;;;;;4977972;28;19933;-76
2024/01/09 12:32:05;;;;;;;;;;;-6.60;99.90;;;;;;4977492;28;20016;-75
2024/01/09 12:34:31;;;;;;;;;;;-6.50;99.90;;;;;;4977905;28;19933;-75
2024/01/09 12:37:00;;;;;;;;;;;-6.50;99.90;;;;;;4979793;28;19949;-75
2024/01/09 12:39:27;;;;;;;;;;;-6.60;99.90;;;;;;4979767;28;19930;-75
2024/01/09 12:42:06;;;;;;;;;;;-6.50;99.90;;;;;;4980018;28;19927;-75
2024/01/09 12:44:33;;;;;;;;;;;-6.40;99.90;;;;;;4980047;28;19962;-75
2024/01/09 12:47:03;;;;;;;;;;;-6.40;99.90;;;;;;4979443;28;19926;-75
2024/01/09 12:49:29;;;;;;;;;;;-6.40;99.90;;;;;;4979860;28;19930;-77
2024/01/09 12:51:56;;;;;;;;;;;-6.40;99.90;;;;;;4980714;28;19957;-76
2024/01/09 12:54:23;;;;;;;;;;;-6.50;99.90;;;;;;4979551;28;19974;-76
2024/01/09 12:56:50;;;;;;;;;;;-6.50;99.90;;;;;;4979860;28;19930;-76
2024/01/09 12:59:22;;;;;;;;;;;-6.40;99.90;;;;;;4979616;28;19926;-75
2024/01/09 13:01:49;;;;;;;;;;;-6.40;99.90;;;;;;4979428;28;19926;-76
2024/01/09 13:04:16;;;;;;;;;;;-6.40;99.90;;;;;;4979392;28;20029;-75
2024/01/09 13:06:43;;;;;;;;;;;-6.30;99.90;;;;;;4977525;28;19930;-76
2024/01/09 13:09:10;;;;;;;;;;;-6.30;99.90;;;;;;4976983;28;19965;-76
2024/01/09 13:11:37;;;;;;;;;;;-6.30;99.90;;;;;;4977248;28;19958;-76
2024/01/09 13:14:04;;;;;;;;;;;-6.30;99.90;;;;;;4976453;28;19926;-76
2024/01/09 13:16:31;;;;;;;;;;;-6.30;99.90;;;;;;4975995;28;19926;-77
2024/01/09 13:18:57;;;;;;;;;;;-6.20;99.90;;;;;;4976440;28;19933;-76
2024/01/09 13:21:25;;;;;;;;;;;-6.40;99.90;;;;;;4976090;28;19926;-76
2024/01/09 13:23:52;;;;;;;;;;;-6.20;99.90;;;;;;4975878;28;19933;-76
2024/01/09 13:26:18;;;;;;;;;;;-6.40;99.90;;;;;;4975828;28;19933;-76
2024/01/09 13:28:45;;;;;;;;;;;-6.30;99.90;;;;;;4975888;28;19926;-76
2024/01/09 13:31:12;;;;;;;;;;;-6.30;99.90;;;;;;4976421;28;19982;-76
2024/01/09 13:33:39;;;;;;;;;;;-6.00;99.90;;;;;;4975908;28;19926;-76
2024/01/09 13:36:06;;;;;;;;;;;-6.30;99.90;;;;;;4975892;28;19996;-76
2024/01/09 13:38:35;;;;;;;;;;;-6.30;99.90;;;;;;4975673;28;19977;-76
2024/01/09 13:41:02;;;;;;;;;;;-6.30;99.90;;;;;;4975613;28;20394;-76
2024/01/09 13:43:29;;;;;;;;;;;-6.30;99.90;;;;;;4975331;28;19954;-76
2024/01/09 13:45:57;;;;;;;;;;;-6.20;99.90;;;;;;4976085;28;19926;-77
2024/01/09 13:48:27;;;;;;;;;;;-6.20;99.90;;;;;;4976572;28;19926;-79
2024/01/09 13:50:53;;;;;;;;;;;-6.20;99.90;;;;;;4976415;28;19933;-77
2024/01/09 13:53:20;;;;;;;;;;;-6.30;99.90;;;;;;4975407;28;20371;-77
2024/01/09 13:55:48;;;;;;;;;;;-5.60;99.90;;;;;;4976667;28;19933;-77
2024/01/09 13:58:15;;;;;;;;;;;-6.20;99.90;;;;;;4975952;28;19926;-77
2024/01/09 14:00:42;;;;;;;;;;;-6.10;99.90;;;;;;4975681;28;20005;-76
2024/01/09 14:03:09;;;;;;;;;;;-6.20;99.90;;;;;;4975695;28;19934;-76
2024/01/09 14:05:35;;;;;;;;;;;-6.00;99.90;;;;;;4975457;28;20384;-75
2024/01/09 14:08:02;;;;;;;;;;;-6.20;99.90;;;;;;4975122;28;20414;-75
2024/01/09 14:10:28;;;;;;;;;;;-6.20;99.90;;;;;;4975118;28;19926;-75
2024/01/09 14:12:56;;;;;;;;;;;-6.10;99.90;;;;;;4975277;28;19930;-76
2024/01/09 14:15:23;;;;;;;;;;;-6.20;99.90;;;;;;4975555;28;19926;-75
2024/01/09 14:17:50;;;;;;;;;;;-6.20;99.90;;;;;;4974861;28;20379;-76
2024/01/09 14:20:16;;;;;;;;;;;-6.20;99.90;;;;;;4975118;28;19930;-76
2024/01/09 14:22:43;;;;;;;;;;;-6.20;99.90;;;;;;4975267;28;19973;-76
2024/01/09 14:25:10;;;;;;;;;;;-6.10;99.90;;;;;;4975044;28;20376;-76
2024/01/09 14:27:37;;;;;;;;;;;-6.20;99.90;;;;;;4975059;28;20284;-75
2024/01/09 14:30:06;;;;;;;;;;;-6.30;99.90;;;;;;4975217;28;19926;-76
2024/01/09 14:32:34;;;;;;;;;;;-6.30;99.90;;;;;;4975209;28;20347;-77
2024/01/09 14:35:01;;;;;;;;;;;-6.20;99.90;;;;;;4975134;28;20383;-77
2024/01/09 14:37:27;;;;;;;;;;;-6.30;99.90;;;;;;4975651;28;19926;-77
2024/01/09 14:39:54;;;;;;;;;;;-6.20;99.90;;;;;;4975849;28;19926;-77
2024/01/09 14:42:21;;;;;;;;;;;-6.30;99.90;;;;;;4974746;28;20411;-77
2024/01/09 14:44:54;;;;;;;;;;;-6.20;99.90;;;;;;4974657;28;20311;-77
2024/01/09 14:47:22;;;;;;;;;;;-6.30;99.90;;;;;;4975124;28;19930;-77
2024/01/09 14:49:48;;;;;;;;;;;-6.40;99.90;;;;;;4975044;28;19973;-77
2024/01/09 14:52:15;;;;;;;;;;;-6.40;99.90;;;;;;4975118;28;19933;-77
2024/01/09 14:54:42;;;;;;;;;;;-6.40;99.90;;;;;;4976352;28;20012;-77
2024/01/09 14:57:08;;;;;;;;;;;-6.30;99.90;;;;;;4980020;28;19930;-76
2024/01/09 14:59:35;;;;;;;;;;;-6.40;99.90;;;;;;4979678;28;19927;-76
2024/01/09 15:02:02;;;;;;;;;;;-6.40;99.90;;;;;;4980011;28;19948;-76
2024/01/09 15:04:30;;;;;;;;;;;-6.40;99.90;;;;;;4980089;28;20431;-76
2024/01/09 15:06:57;;;;;;;;;;;-6.40;99.90;;;;;;4980480;28;19926;-76
2024/01/09 15:09:26;;;;;;;;;;;-6.40;99.90;;;;;;4979921;28;19926;-76
2024/01/09 15:11:53;;;;;;;;;;;-6.40;99.90;;;;;;4979477;28;19930;-77
2024/01/09 15:14:20;;;;;;;;;;;-6.40;99.90;;;;;;4978705;28;20003;-76
2024/01/09 15:16:46;;;;;;;;;;;-6.30;99.90;;;;;;4978755;28;20402;-76
2024/01/09 15:19:13;;;;;;;;;;;-6.20;99.90;;;;;;4979904;28;19926;-76
2024/01/09 15:21:41;;;;;;;;;;;-6.40;99.90;;;;;;4980368;28;20020;-76
2024/01/09 15:24:08;;;;;;;;;;;-6.30;99.90;;;;;;4978787;28;20008;-76
2024/01/09 15:26:36;;;;;;;;;;;-6.30;99.90;;;;;;4979302;28;19930;-76
2024/01/09 15:29:03;;;;;;;;;;;-6.30;99.90;;;;;;4978536;28;20376;-77
2024/01/09 15:31:29;;;;;;;;;;;-6.30;99.90;;;;;;4978328;28;19927;-78
2024/01/09 15:33:58;;;;;;;;;;;-6.30;99.90;;;;;;4978244;28;19933;-77
2024/01/09 15:36:25;;;;;;;;;;;-6.30;99.90;;;;;;4978281;28;19926;-77
2024/01/09 15:38:55;;;;;;;;;;;-6.30;99.90;;;;;;4978036;28;19990;-78
2024/01/09 15:41:21;;;;;;;;;;;-6.30;99.90;;;;;;4978304;28;19930;-78
2024/01/09 15:43:48;;;;;;;;;;;-6.30;99.90;;;;;;4977514;28;20426;-75
2024/01/09 15:46:21;;;;;;;;;;;-6.30;99.90;;;;;;4977928;28;19965;-73
2024/01/09 15:48:51;;;;;;;;;;;-6.30;99.90;;;;;;4977817;28;19930;-73
2024/01/09 15:51:17;;;;;;;;;;;-6.20;99.90;;;;;;4978277;28;20380;-73
2024/01/09 15:53:44;;;;;;;;;;;-6.20;99.90;;;;;;4978636;28;19933;-73
2024/01/09 15:56:18;;;;;;;;;;;-6.20;99.90;;;;;;4978203;28;19933;-73
2024/01/09 15:58:45;;;;;;;;;;;-6.20;99.90;;;;;;4978985;28;19926;-73
2024/01/09 16:01:16;;;;;;;;;;;-6.20;99.90;;;;;;4978648;28;19930;-73
2024/01/09 16:03:42;;;;;;;;;;;-6.20;99.90;;;;;;4977719;28;19932;-73
2024/01/09 16:06:10;;;;;;;;;;;-6.20;99.90;;;;;;4976671;28;19930;-73
2024/01/09 16:08:37;;;;;;;;;;;-6.20;99.90;;;;;;4977397;28;20395;-73
2024/01/09 16:11:03;;;;;;;;;;;-6.10;99.90;;;;;;4977226;28;19926;-73
2024/01/09 16:13:31;;;;;;;;;;;-6.10;99.90;;;;;;4976983;28;20315;-74
2024/01/09 16:16:03;;;;;;;;;;;-6.20;99.90;;;;;;4977014;28;20403;-74
2024/01/09 16:18:29;;;;;;;;;;;-6.20;99.90;;;;;;4977217;28;19926;-74
2024/01/09 16:20:56;;;;;;;;;;;-6.20;99.90;;;;;;4976838;28;20017;-74
2024/01/09 16:23:22;;;;;;;;;;;-6.10;99.90;;;;;;4977071;28;19926;-74
2024/01/09 16:25:49;;;;;;;;;;;-6.10;99.90;;;;;;4977164;28;19926;-74
2024/01/09 16:28:16;;;;;;;;;;;-6.10;99.90;;;;;;4977115;28;19927;-74
2024/01/09 16:30:44;;;;;;;;;;;-6.10;99.90;;;;;;4976990;28;19932;-74
2024/01/09 16:33:10;;;;;;;;;;;-6.10;99.90;;;;;;4977332;28;19926;-74
2024/01/09 16:35:37;;;;;;;;;;;-6.00;99.90;;;;;;4977029;28;19930;-75
2024/01/09 16:38:04;;;;;;;;;;;-6.20;99.90;;;;;;4977562;28;20272;-75
2024/01/09 16:40:31;;;;;;;;;;;-6.20;99.90;;;;;;4977867;28;19926;-72
2024/01/09 16:42:58;;;;;;;;;;;-6.30;99.90;;;;;;4978494;28;19996;-74
2024/01/09 16:45:24;;;;;;;;;;;-6.30;99.90;;;;;;4977602;28;20335;-74
2024/01/09 16:47:52;;;;;;;;;;;-6.10;99.90;;;;;;4978087;28;19937;-73
2024/01/09 16:50:19;;;;;;;;;;;-6.20;99.90;;;;;;4976594;28;19926;-74
2024/01/09 16:52:48;;;;;;;;;;;-6.30;99.90;;;;;;4976530;28;19926;-72
2024/01/09 16:55:15;;;;;;;;;;;-6.30;99.90;;;;;;4976484;28;19977;-73
2024/01/09 16:57:41;;;;;;;;;;;-6.30;99.90;;;;;;4976820;28;19973;-74
2024/01/09 17:00:09;;;;;;;;;;;-6.30;99.90;;;;;;4976611;28;19933;-74
2024/01/09 17:02:35;;;;;;;;;;;-6.30;99.90;;;;;;4976525;28;19949;-75
2024/01/09 17:05:04;;;;;;;;;;;-6.30;99.90;;;;;;4976422;28;19937;-74
2024/01/09 17:07:31;;;;;;;;;;;-6.20;99.90;;;;;;4976649;28;20292;-74
2024/01/09 17:09:59;;;;;;;;;;;-6.20;99.90;;;;;;4976140;28;19933;-75
2024/01/09 17:12:27;;;;;;;;;;;-6.20;99.90;;;;;;4976446;28;19933;-76
2024/01/09 17:14:53;;;;;;;;;;;-6.30;99.90;;;;;;4976865;28;19977;-75
2024/01/09 17:17:20;;;;;;;;;;;-6.30;99.90;;;;;;4975871;28;19933;-75
2024/01/09 17:19:47;;;;;;;;;;;-6.20;99.90;;;;;;4975669;28;19926;-75
2024/01/09 17:22:15;;;;;;;;;;;-6.20;99.90;;;;;;4975915;28;19927;-75
2024/01/09 17:24:42;;;;;;;;;;;-6.30;99.90;;;;;;4975895;28;19937;-75
2024/01/09 17:27:09;;;;;;;;;;;-6.30;99.90;;;;;;4976243;28;20388;-75
2024/01/09 17:29:36;;;;;;;;;;;-6.30;99.90;;;;;;4977064;28;19927;-77
2024/01/09 17:32:03;;;;;;;;;;;-6.40;99.90;;;;;;4975724;28;20395;-76
2024/01/09 17:34:29;;;;;;;;;;;-6.40;99.90;;;;;;4976146;28;19949;-76
2024/01/09 17:36:56;;;;;;;;;;;-6.40;99.90;;;;;;4975512;28;20296;-76
2024/01/09 17:39:25;;;;;;;;;;;-6.50;99.90;;;;;;4975737;28;19935;-76
2024/01/09 17:41:53;;;;;;;;;;;-6.50;99.90;;;;;;4975848;28;19980;-76
2024/01/09 17:44:19;;;;;;;;;;;-6.40;99.90;;;;;;4975404;28;20376;-76
2024/01/09 17:46:47;;;;;;;;;;;-6.50;99.90;;;;;;4975789;28;19926;-76
2024/01/09 17:49:13;;;;;;;;;;;-6.60;99.90;;;;;;4975552;28;20410;-76
2024/01/09 17:51:40;;;;;;;;;;;-6.60;99.90;;;;;;4975737;28;20302;-76
2024/01/09 17:54:07;;;;;;;;;;;-6.60;99.90;;;;;;4975782;28;20384;-76
2024/01/09 17:56:37;;;;;;;;;;;-6.80;99.90;;;;;;4975880;28;19926;-76
2024/01/09 17:59:04;;;;;;;;;;;-6.80;99.90;;;;;;4976379;28;19962;-77
2024/01/09 18:01:31;;;;;;;;;;;-6.80;99.90;;;;;;4975347;28;20293;-77
2024/01/09 18:03:58;;;;;;;;;;;-6.90;99.90;;;;;;4975410;28;20462;-76
2024/01/09 18:06:25;;;;;;;;;;;-6.90;99.90;;;;;;4975656;28;20028;-76
2024/01/09 18:08:53;;;;;;;;;;;-6.90;99.90;;;;;;4975838;28;19934;-76
2024/01/09 18:11:23;;;;;;;;;;;-6.80;99.90;;;;;;4975886;28;19934;-76
2024/01/09 18:13:52;;;;;;;;;;;-7.00;99.90;;;;;;4976072;28;20447;-76
2024/01/09 18:16:19;;;;;;;;;;;-7.00;99.90;;;;;;4977820;28;19969;-75
2024/01/09 18:18:48;;;;;;;;;;;-7.00;99.90;;;;;;4977279;28;19933;-75
2024/01/09 18:21:21;;;;;;;;;;;-7.10;99.90;;;;;;4976669;28;20344;-75
2024/01/09 18:23:48;;;;;;;;;;;-7.10;99.90;;;;;;4976217;28;19949;-75
2024/01/09 18:26:15;;;;;;;;;;;-7.10;99.90;;;;;;4976617;28;19933;-75
2024/01/09 18:28:43;;;;;;;;;;;-7.10;99.90;;;;;;4978338;28;19927;-75
2024/01/09 18:31:11;;;;;;;;;;;-7.10;99.90;;;;;;4980458;28;19926;-75
2024/01/09 18:33:41;;;;;;;;;;;-7.20;99.90;;;;;;4979720;28;19926;-75
2024/01/09 18:36:08;;;;;;;;;;;-7.10;99.90;;;;;;4980374;28;19933;-74
2024/01/09 18:38:36;;;;;;;;;;;-7.20;99.90;;;;;;4981602;28;19933;-75
2024/01/09 18:41:04;;;;;;;;;;;-7.20;99.90;;;;;;4980481;28;19961;-76
2024/01/09 18:43:31;;;;;;;;;;;-7.10;99.90;;;;;;4980837;28;19926;-76
2024/01/09 18:45:58;;;;;;;;;;;-7.10;99.90;;;;;;4980564;28;19996;-75
2024/01/09 18:48:26;;;;;;;;;;;-7.30;99.90;;;;;;4981514;28;19932;-75
2024/01/09 18:50:53;;;;;;;;;;;-7.20;99.90;;;;;;4982143;28;20013;-75
2024/01/09 18:53:20;;;;;;;;;;;-7.30;99.90;;;;;;4982670;28;19926;-76
2024/01/09 18:55:47;;;;;;;;;;;-7.30;99.90;;;;;;4983103;28;20295;-76
2024/01/09 18:58:14;;;;;;;;;;;-7.30;99.90;;;;;;4983623;28;19949;-75
2024/01/09 19:00:40;;;;;;;;;;;-7.30;99.90;;;;;;4983700;28;19930;-77
2024/01/09 19:03:07;;;;;;;;;;;-7.30;99.90;;;;;;4983023;28;19933;-75
2024/01/09 19:05:35;;;;;;;;;;;-7.10;99.90;;;;;;4982332;28;19926;-75
2024/01/09 19:08:01;;;;;;;;;;;-7.20;99.90;;;;;;4983217;28;19926;-74
2024/01/09 19:10:28;;;;;;;;;;;-7.30;99.90;;;;;;4982881;28;19926;-75
2024/01/09 19:12:54;;;;;;;;;;;-7.10;99.90;;;;;;4982986;28;19926;-73
2024/01/09 19:15:21;;;;;;;;;;;-7.20;99.90;;;;;;4982545;28;19930;-73
2024/01/09 19:17:48;;;;;;;;;;;-7.40;99.90;;;;;;4982612;28;19933;-73
2024/01/09 19:20:18;;;;;;;;;;;-7.40;99.90;;;;;;4982248;28;20324;-73
2024/01/09 19:22:47;;;;;;;;;;;-7.40;99.90;;;;;;4982737;28;19926;-73
2024/01/09 19:25:14;;;;;;;;;;;-7.40;99.90;;;;;;4982620;28;20007;-73
2024/01/09 19:27:41;;;;;;;;;;;-7.40;99.90;;;;;;4983163;28;19966;-74
2024/01/09 19:30:08;;;;;;;;;;;-7.40;99.90;;;;;;4982136;28;19926;-73
2024/01/09 19:32:35;;;;;;;;;;;-7.40;99.90;;;;;;4982209;28;19926;-74
2024/01/09 19:35:02;;;;;;;;;;;-7.40;99.90;;;;;;4981342;28;20389;-74
2024/01/09 19:37:28;;;;;;;;;;;-7.40;99.90;;;;;;4981918;28;20276;-74
2024/01/09 19:39:56;;;;;;;;;;;-7.40;99.90;;;;;;4981960;28;19926;-73
2024/01/09 19:42:23;;;;;;;;;;;-7.40;99.90;;;;;;4980126;28;19980;-74
2024/01/09 19:44:51;;;;;;;;;;;-7.40;99.90;;;;;;4979927;28;19927;-74
2024/01/09 19:47:19;;;;;;;;;;;-7.40;99.90;;;;;;4981376;28;19933;-74
2024/01/09 19:49:46;;;;;;;;;;;-7.40;99.90;;;;;;4981102;28;20017;-75
2024/01/09 19:52:14;;;;;;;;;;;-7.40;99.90;;;;;;4979605;28;19930;-74
2024/01/09 19:54:41;;;;;;;;;;;-7.40;99.90;;;;;;4979251;28;19926;-75
2024/01/09 19:57:10;;;;;;;;;;;-7.40;99.90;;;;;;4979076;28;19935;-75
2024/01/09 19:59:37;;;;;;;;;;;-7.40;99.90;;;;;;4979412;28;19973;-75
2024/01/09 20:02:03;;;;;;;;;;;-7.40;99.90;;;;;;4979274;28;20411;-75
2024/01/09 20:04:30;;;;;;;;;;;-7.40;99.90;;;;;;4979841;28;19926;-74
2024/01/09 20:06:57;;;;;;;;;;;-7.40;99.90;;;;;;4979740;28;20327;-74
2024/01/09 20:09:24;;;;;;;;;;;-7.50;99.90;;;;;;4979786;28;19927;-75
2024/01/09 20:11:51;;;;;;;;;;;-7.40;99.90;;;;;;4979624;28;19926;-75
2024/01/09 20:14:19;;;;;;;;;;;-7.40;99.90;;;;;;4978976;28;19933;-74
2024/01/09 20:16:45;;;;;;;;;;;-7.40;99.90;;;;;;4979967;28;19926;-75
2024/01/09 20:19:12;;;;;;;;;;;-7.40;99.90;;;;;;4978691;28;20311;-74
2024/01/09 20:21:39;;;;;;;;;;;-7.40;99.90;;;;;;4978983;28;20414;-73
2024/01/09 20:24:06;;;;;;;;;;;-7.40;99.90;;;;;;4979570;28;19930;-73
2024/01/09 20:26:34;;;;;;;;;;;-7.30;99.90;;;;;;4981382;28;19966;-74
2024/01/09 20:29:01;;;;;;;;;;;-7.30;99.90;;;;;;4981194;28;19930;-73
2024/01/09 20:31:29;;;;;;;;;;;-7.30;99.90;;;;;;4981042;28;19934;-73
2024/01/09 20:33:55;;;;;;;;;;;-7.10;99.90;;;;;;4981270;28;19992;-74
2024/01/09 20:36:23;;;;;;;;;;;-7.20;99.90;;;;;;4981107;28;19933;-73
2024/01/09 20:38:50;;;;;;;;;;;-7.20;99.90;;;;;;4981079;28;19973;-74
2024/01/09 20:41:18;;;;;;;;;;;-7.10;99.90;;;;;;4981408;28;19926;-74
2024/01/09 20:43:44;;;;;;;;;;;-7.10;99.90;;;;;;4981246;28;19926;-73
2024/01/09 20:46:11;;;;;;;;;;;-7.00;99.90;;;;;;4981151;28;19934;-74
2024/01/09 20:48:39;;;;;;;;;;;-6.90;99.90;;;;;;4980946;28;20400;-73
2024/01/09 20:51:06;;;;;;;;;;;-7.00;99.90;;;;;;4980372;28;20388;-73
2024/01/09 20:53:34;;;;;;;;;;;-7.00;99.90;;;;;;4978790;28;19977;-73
2024/01/09 20:56:01;;;;;;;;;;;-7.00;99.90;;;;;;4980943;28;19926;-74
2024/01/09 20:58:27;;;;;;;;;;;-7.00;99.90;;;;;;4980785;28;19926;-76
2024/01/09 21:00:54;;;;;;;;;;;-6.90;99.90;;;;;;4981058;28;19926;-74
2024/01/09 21:03:21;;;;;;;;;;;-7.00;99.90;;;;;;4980458;28;19990;-73
2024/01/09 21:05:49;;;;;;;;;;;-7.00;99.90;;;;;;4980380;28;19954;-74
2024/01/09 21:08:15;;;;;;;;;;;-7.00;99.90;;;;;;4980256;28;19926;-73
2024/01/09 21:10:43;;;;;;;;;;;-7.00;99.90;;;;;;4978117;28;19926;-74
2024/01/09 21:13:11;;;;;;;;;;;-7.00;99.90;;;;;;4977975;28;20029;-73
2024/01/09 21:15:40;;;;;;;;;;;-6.80;99.90;;;;;;4978110;28;19926;-73
2024/01/09 21:18:07;;;;;;;;;;;-7.00;99.90;;;;;;4977721;28;20384;-73
2024/01/09 21:20:34;;;;;;;;;;;-6.90;99.90;;;;;;4977946;28;19926;-73
2024/01/09 21:23:02;;;;;;;;;;;-6.90;99.90;;;;;;4978020;28;19934;-73
2024/01/09 21:25:29;;;;;;;;;;;-6.80;99.90;;;;;;4977735;28;19926;-73
2024/01/09 21:27:55;;;;;;;;;;;-6.90;99.90;;;;;;4977692;28;20415;-73
2024/01/09 21:30:22;;;;;;;;;;;-6.90;99.90;;;;;;4977867;28;19926;-72
2024/01/09 21:32:48;;;;;;;;;;;-6.90;99.90;;;;;;4977866;28;19933;-73
2024/01/09 21:35:15;;;;;;;;;;;-6.90;99.90;;;;;;4977894;28;19930;-74
2024/01/09 21:37:42;;;;;;;;;;;-7.00;99.90;;;;;;4977371;28;20368;-73
2024/01/09 21:40:11;;;;;;;;;;;-6.90;99.90;;;;;;4977398;28;19933;-74
2024/01/09 21:42:37;;;;;;;;;;;-7.00;99.90;;;;;;4977535;28;19933;-73
2024/01/09 21:45:04;;;;;;;;;;;-7.00;99.90;;;;;;4976866;28;19934;-73
2024/01/09 21:47:31;;;;;;;;;;;-7.00;99.90;;;;;;4975693;28;19926;-73
